createdAt,value
2022-09-25T00:01:21.076Z,12.95
2022-09-25T00:03:49.547Z,12.40
2022-09-25T00:06:20.006Z,12.93
2022-09-25T00:08:48.088Z,13.32
2022-09-25T00:11:21.283Z,10.75
2022-09-25T00:13:48.875Z,11.13
2022-09-25T00:16:22.812Z,11.40
2022-09-25T00:19:09.283Z,12.45
2022-09-25T00:21:37.427Z,13.00
2022-09-25T00:24:10.961Z,11.20
2022-09-25T00:29:10.763Z,10.95
2022-09-25T00:31:38.892Z,10.30
2022-09-25T00:34:06.562Z,13.20
2022-09-25T00:36:35.526Z,12.52
2022-09-25T00:39:03.552Z,9.57
2022-09-25T00:41:32.128Z,11.00
2022-09-25T00:44:01.729Z,13.00
2022-09-25T00:46:40.102Z,10.60
2022-09-25T00:49:14.621Z,14.80
2022-09-25T00:51:57.710Z,9.80
2022-09-25T00:54:30.340Z,10.45
2022-09-25T00:57:01.178Z,10.25
2022-09-25T00:59:34.502Z,10.73
2022-09-25T01:02:02.899Z,12.60
2022-09-25T01:04:34.724Z,10.98
2022-09-25T01:07:03.080Z,10.10
2022-09-25T01:09:31.192Z,10.35
2022-09-25T01:11:58.780Z,12.18
2022-09-25T01:14:26.959Z,9.88
2022-09-25T01:17:14.692Z,11.30
2022-09-25T01:19:45.804Z,10.45
2022-09-25T01:22:47.197Z,11.13
2022-09-25T01:25:55.026Z,11.18
2022-09-25T01:28:31.668Z,10.73
2022-09-25T01:31:04.595Z,10.45
2022-09-25T01:33:37.193Z,10.37
2022-09-25T01:36:29.856Z,10.68
2022-09-25T01:39:08.141Z,10.85
2022-09-25T01:41:48.000Z,11.48
2022-09-25T01:44:23.528Z,10.90
2022-09-25T01:46:53.725Z,11.02
2022-09-25T01:49:35.469Z,10.70
2022-09-25T01:52:10.320Z,11.15
2022-09-25T01:54:43.944Z,10.90
2022-09-25T01:57:27.160Z,11.05
2022-09-25T01:59:59.695Z,12.47
2022-09-25T02:02:33.978Z,12.77
2022-09-25T02:05:09.731Z,12.50
2022-09-25T02:07:50.939Z,13.20
2022-09-25T02:10:26.676Z,11.43
2022-09-25T02:12:58.595Z,10.25
2022-09-25T02:15:32.358Z,9.68
2022-09-25T02:20:53.983Z,11.85
2022-09-25T02:23:25.222Z,10.40
2022-09-25T02:25:52.709Z,9.63
2022-09-25T02:28:23.016Z,10.70
2022-09-25T02:30:53.885Z,10.65
2022-09-25T02:33:21.426Z,8.45
2022-09-25T02:35:50.107Z,8.02
2022-09-25T02:38:17.822Z,8.23
2022-09-25T02:40:59.026Z,8.52
2022-09-25T02:43:49.300Z,8.48
2022-09-25T02:46:39.236Z,9.40
2022-09-25T02:49:15.553Z,7.80
2022-09-25T02:52:01.852Z,8.50
2022-09-25T02:54:33.117Z,8.18
2022-09-25T02:57:09.440Z,7.78
2022-09-25T02:59:45.013Z,7.95
2022-09-25T03:02:16.276Z,8.15
2022-09-25T03:04:48.806Z,8.05
2022-09-25T03:07:18.405Z,9.52
2022-09-25T03:09:49.009Z,10.68
2022-09-25T03:12:17.176Z,11.13
2022-09-25T03:14:44.958Z,13.52
2022-09-25T03:17:13.917Z,13.40
2022-09-25T03:19:41.429Z,13.90
2022-09-25T03:22:09.018Z,16.02
2022-09-25T03:24:37.127Z,13.75
2022-09-25T03:27:04.700Z,14.20
2022-09-25T03:29:32.256Z,15.90
2022-09-25T03:31:59.805Z,16.10
2022-09-25T03:34:27.384Z,16.25
2022-09-25T03:36:55.489Z,16.13
2022-09-25T03:39:23.615Z,15.25
2022-09-25T03:41:51.608Z,15.32
2022-09-25T03:44:19.544Z,16.08
2022-09-25T03:46:47.319Z,16.55
2022-09-25T03:49:15.252Z,15.48
2022-09-25T03:51:42.867Z,15.15
2022-09-25T03:54:10.398Z,16.38
2022-09-25T03:56:38.428Z,16.73
2022-09-25T03:59:06.397Z,15.43
2022-09-25T04:01:34.775Z,16.88
2022-09-25T04:04:03.448Z,16.10
2022-09-25T04:06:31.533Z,15.18
2022-09-25T04:08:59.063Z,15.00
2022-09-25T04:11:26.686Z,15.70
2022-09-25T04:13:56.972Z,15.30
2022-09-25T04:16:24.942Z,16.48
2022-09-25T04:18:52.444Z,16.25
2022-09-25T04:21:20.464Z,17.10
2022-09-25T04:24:07.924Z,17.45
2022-09-25T04:26:36.559Z,18.25
2022-09-25T04:29:04.932Z,17.67
2022-09-25T04:31:32.706Z,18.13
2022-09-25T04:34:02.545Z,17.77
2022-09-25T04:36:30.105Z,20.17
2022-09-25T04:38:57.670Z,20.02
2022-09-25T04:41:25.742Z,20.08
2022-09-25T04:43:53.495Z,19.08
2022-09-25T04:46:22.717Z,17.85
2022-09-25T04:48:50.775Z,20.02
2022-09-25T04:51:18.903Z,19.73
2022-09-25T04:53:46.781Z,19.63
2022-09-25T04:56:16.290Z,20.38
2022-09-25T04:58:49.393Z,21.05
2022-09-25T05:01:20.188Z,20.40
2022-09-25T05:03:54.139Z,21.10
2022-09-25T05:06:23.185Z,19.05
2022-09-25T05:08:50.902Z,20.80
2022-09-25T05:11:19.337Z,20.45
2022-09-25T05:13:51.490Z,20.58
2022-09-25T05:16:19.881Z,30.30
2022-09-25T05:18:47.925Z,20.48
2022-09-25T05:21:15.442Z,42.30
2022-09-25T05:23:43.044Z,21.33
2022-09-25T05:26:11.259Z,22.38
2022-09-25T05:28:39.829Z,22.05
2022-09-25T05:31:07.828Z,22.27
2022-09-25T05:33:35.986Z,22.73
2022-09-25T05:36:06.526Z,23.70
2022-09-25T05:38:35.635Z,24.05
2022-09-25T05:41:05.070Z,22.58
2022-09-25T05:43:33.776Z,29.42
2022-09-25T05:46:01.754Z,33.22
2022-09-25T05:48:29.432Z,32.22
2022-09-25T05:50:58.642Z,35.53
2022-09-25T05:53:26.914Z,34.05
2022-09-25T05:55:58.695Z,52.92
2022-09-25T05:58:28.313Z,31.90
2022-09-25T06:00:59.461Z,35.97
2022-09-25T06:03:29.620Z,29.92
2022-09-25T06:06:01.168Z,27.67
2022-09-25T06:08:32.826Z,27.02
2022-09-25T06:11:03.081Z,28.30
2022-09-25T06:13:33.652Z,24.33
2022-09-25T06:16:01.800Z,21.10
2022-09-25T06:18:29.954Z,24.85
2022-09-25T06:21:04.979Z,25.30
2022-09-25T06:23:32.534Z,24.55
2022-09-25T06:26:02.009Z,22.30
2022-09-25T06:28:31.046Z,25.50
2022-09-25T06:31:03.268Z,25.20
2022-09-25T06:33:31.295Z,29.55
2022-09-25T06:35:58.990Z,26.77
2022-09-25T06:38:26.616Z,29.15
2022-09-25T06:40:57.334Z,32.88
2022-09-25T06:43:28.643Z,30.70
2022-09-25T06:46:02.604Z,31.25
2022-09-25T06:48:31.624Z,32.03
2022-09-25T06:51:00.952Z,34.38
2022-09-25T06:53:28.566Z,33.47
2022-09-25T06:55:58.972Z,34.75
2022-09-25T06:58:27.607Z,33.83
2022-09-25T07:00:56.739Z,33.00
2022-09-25T07:03:43.019Z,32.17
2022-09-25T07:06:18.670Z,32.40
2022-09-25T07:08:48.134Z,28.95
2022-09-25T07:11:18.987Z,31.70
2022-09-25T07:13:48.301Z,31.38
2022-09-25T07:16:18.787Z,30.95
2022-09-25T07:18:46.994Z,29.63
2022-09-25T07:21:17.660Z,30.10
2022-09-25T07:23:48.868Z,30.50
2022-09-25T07:26:24.417Z,31.42
2022-09-25T07:28:58.225Z,29.23
2022-09-25T07:31:31.791Z,30.02
2022-09-25T07:34:02.794Z,31.55
2022-09-25T07:36:30.742Z,30.05
2022-09-25T07:38:58.831Z,29.42
2022-09-25T07:41:26.745Z,30.35
2022-09-25T07:46:46.513Z,29.60
2022-09-25T07:49:14.406Z,28.10
2022-09-25T07:51:42.378Z,27.63
2022-09-25T07:54:10.057Z,27.00
2022-09-25T07:56:38.480Z,25.73
2022-09-25T07:59:06.760Z,24.67
2022-09-25T08:01:38.228Z,27.05
2022-09-25T08:04:08.769Z,26.77
2022-09-25T08:06:36.720Z,26.75
2022-09-25T08:09:09.641Z,25.02
2022-09-25T08:11:38.527Z,23.58
2022-09-25T08:14:06.244Z,24.58
2022-09-25T08:16:33.765Z,21.77
2022-09-25T08:19:01.278Z,22.80
2022-09-25T08:21:28.815Z,26.13
2022-09-25T08:23:58.095Z,22.92
2022-09-25T08:26:28.341Z,22.42
2022-09-25T08:28:56.878Z,23.90
2022-09-25T08:31:24.648Z,22.10
2022-09-25T08:33:52.231Z,18.77
2022-09-25T08:36:21.607Z,17.92
2022-09-25T08:38:49.501Z,15.75
2022-09-25T08:41:35.692Z,15.45
2022-09-25T08:44:21.326Z,14.07
2022-09-25T08:47:22.111Z,14.07
2022-09-25T08:50:16.338Z,13.43
2022-09-25T08:55:50.497Z,12.90
2022-09-25T08:58:29.179Z,12.48
2022-09-25T09:01:04.757Z,13.15
2022-09-25T09:03:36.603Z,13.23
2022-09-25T09:06:12.857Z,13.18
2022-09-25T09:08:42.961Z,12.57
2022-09-25T09:11:23.940Z,12.20
2022-09-25T09:14:04.156Z,12.35
2022-09-25T09:16:49.852Z,11.70
2022-09-25T09:19:17.869Z,12.00
2022-09-25T09:22:03.271Z,11.18
2022-09-25T09:24:55.875Z,11.75
2022-09-25T09:27:42.781Z,12.57
2022-09-25T09:30:17.455Z,11.98
2022-09-25T09:33:06.160Z,10.88
2022-09-25T09:35:45.938Z,9.73
2022-09-25T09:38:31.782Z,11.77
2022-09-25T09:41:13.767Z,11.40
2022-09-25T09:43:57.835Z,11.43
2022-09-25T09:46:38.358Z,9.82
2022-09-25T09:49:21.461Z,9.20
2022-09-25T09:52:03.955Z,10.83
2022-09-25T09:55:07.760Z,10.88
2022-09-25T09:57:45.511Z,9.63
2022-09-25T10:00:18.887Z,10.65
2022-09-25T10:05:30.930Z,10.35
2022-09-25T10:07:58.731Z,10.38
2022-09-25T10:10:39.107Z,11.75
2022-09-25T10:13:16.835Z,10.50
2022-09-25T10:16:11.593Z,11.02
2022-09-25T10:19:01.159Z,10.85
2022-09-25T10:21:42.366Z,10.70
2022-09-25T10:24:10.138Z,11.85
2022-09-25T10:26:40.516Z,12.02
2022-09-25T10:29:08.095Z,11.23
2022-09-25T10:31:40.838Z,10.88
2022-09-25T10:34:17.714Z,12.80
2022-09-25T10:36:48.935Z,9.52
2022-09-25T10:39:46.971Z,10.55
2022-09-25T10:42:41.037Z,10.13
2022-09-25T10:45:29.982Z,10.50
2022-09-25T10:48:16.379Z,12.13
2022-09-25T10:50:45.163Z,10.32
2022-09-25T10:53:30.405Z,9.52
2022-09-25T10:56:08.588Z,8.65
2022-09-25T10:58:54.936Z,9.35
2022-09-25T11:01:35.473Z,9.02
2022-09-25T11:04:25.893Z,10.32
2022-09-25T11:06:58.293Z,10.18
2022-09-25T11:09:28.515Z,14.80
2022-09-25T11:12:14.527Z,6.72
2022-09-25T11:14:57.461Z,9.90
2022-09-25T11:17:45.714Z,7.43
2022-09-25T11:20:17.833Z,9.23
2022-09-25T11:23:11.367Z,9.15
2022-09-25T11:26:07.417Z,9.77
2022-09-25T11:28:57.895Z,19.83
2022-09-25T11:31:37.506Z,11.35
2022-09-25T11:34:43.087Z,11.27
2022-09-25T11:37:54.270Z,11.52
2022-09-25T11:41:03.188Z,12.90
2022-09-25T11:43:41.450Z,11.93
2022-09-25T11:46:50.377Z,12.48
2022-09-25T11:49:24.590Z,11.85
2022-09-25T11:52:05.970Z,11.10
2022-09-25T11:55:07.613Z,12.48
2022-09-25T11:58:01.125Z,11.27
2022-09-25T12:01:06.234Z,10.88
2022-09-25T12:03:54.652Z,10.02
2022-09-25T12:06:36.784Z,10.43
2022-09-25T12:09:18.292Z,9.95
2022-09-25T12:11:52.300Z,9.65
2022-09-25T12:14:31.768Z,10.00
2022-09-25T12:17:17.939Z,11.60
2022-09-25T12:19:56.994Z,11.73
2022-09-25T12:23:01.814Z,9.30
2022-09-25T12:25:29.780Z,12.70
2022-09-25T12:28:16.503Z,14.55
2022-09-25T12:31:01.236Z,13.13
2022-09-25T12:33:34.549Z,13.07
2022-09-25T12:36:17.977Z,12.10
2022-09-25T12:38:55.492Z,12.70
2022-09-25T12:41:36.346Z,12.63
2022-09-25T12:44:12.284Z,11.18
2022-09-25T12:46:57.653Z,11.48
2022-09-25T12:49:44.904Z,11.93
2022-09-25T12:52:33.501Z,10.88
2022-09-25T12:55:13.657Z,10.55
2022-09-25T12:57:49.780Z,9.95
2022-09-25T13:00:25.971Z,10.95
2022-09-25T13:03:22.320Z,8.88
2022-09-25T13:05:59.188Z,9.75
2022-09-25T13:08:37.843Z,9.32
2022-09-25T13:11:05.403Z,8.82
2022-09-25T13:13:40.750Z,10.63
2022-09-25T13:16:08.947Z,8.50
2022-09-25T13:18:36.528Z,9.20
2022-09-25T13:21:23.879Z,9.10
2022-09-25T13:23:54.583Z,9.13
2022-09-25T13:26:27.796Z,9.75
2022-09-25T13:28:58.787Z,7.40
2022-09-25T13:31:30.955Z,8.45
2022-09-25T13:34:01.489Z,7.60
2022-09-25T13:36:34.559Z,8.25
2022-09-25T13:39:34.153Z,8.43
2022-09-25T13:42:08.186Z,8.68
2022-09-25T13:44:45.099Z,9.38
2022-09-25T13:47:24.938Z,7.90
2022-09-25T13:50:19.126Z,7.97
2022-09-25T13:52:46.765Z,7.97
2022-09-25T13:55:20.196Z,8.30
2022-09-25T14:00:27.165Z,7.45
2022-09-25T14:03:01.608Z,8.45
2022-09-25T14:05:38.389Z,8.05
2022-09-25T14:08:13.963Z,8.77
2022-09-25T14:10:50.956Z,7.50
2022-09-25T14:13:25.381Z,8.32
2022-09-25T14:15:57.111Z,8.98
2022-09-25T14:18:43.983Z,10.80
2022-09-25T14:21:15.280Z,10.05
2022-09-25T14:23:52.024Z,9.60
2022-09-25T14:26:22.749Z,10.85
2022-09-25T14:28:51.820Z,11.07
2022-09-25T14:31:31.987Z,10.45
2022-09-25T14:34:20.912Z,9.85
2022-09-25T14:37:11.291Z,9.80
2022-09-25T14:39:54.796Z,10.85
2022-09-25T14:42:27.291Z,10.65
2022-09-25T14:45:20.700Z,10.15
2022-09-25T14:47:51.484Z,10.90
2022-09-25T14:50:30.260Z,10.73
2022-09-25T14:53:02.123Z,10.25
2022-09-25T14:55:39.615Z,9.88
2022-09-25T14:58:10.062Z,9.60
2022-09-25T15:00:46.827Z,10.02
2022-09-25T15:03:19.213Z,10.18
2022-09-25T15:05:48.848Z,10.32
2022-09-25T15:08:30.789Z,8.57
2022-09-25T15:11:11.212Z,9.48
2022-09-25T15:13:39.531Z,9.98
2022-09-25T15:16:35.690Z,8.82
2022-09-25T15:19:12.467Z,9.95
2022-09-25T15:21:43.424Z,9.00
2022-09-25T15:24:16.035Z,9.50
2022-09-25T15:26:52.229Z,10.10
2022-09-25T15:29:24.291Z,9.70
2022-09-25T15:31:52.574Z,9.43
2022-09-25T15:34:23.776Z,9.32
2022-09-25T15:36:52.223Z,8.75
2022-09-25T15:39:25.306Z,9.15
2022-09-25T15:41:53.105Z,7.95
2022-09-25T15:44:26.690Z,7.72
2022-09-25T15:49:32.426Z,8.68
2022-09-25T15:52:32.549Z,7.53
2022-09-25T15:55:03.625Z,7.65
2022-09-25T15:57:32.239Z,6.93
2022-09-25T16:00:26.324Z,8.23
2022-09-25T16:03:21.602Z,7.88
2022-09-25T16:05:50.457Z,8.38
2022-09-25T16:08:24.355Z,8.38
2022-09-25T16:11:10.431Z,7.72
2022-09-25T16:13:41.656Z,8.48
2022-09-25T16:16:30.050Z,8.40
2022-09-25T16:19:00.381Z,7.47
2022-09-25T16:21:33.936Z,8.13
2022-09-25T16:24:07.397Z,9.15
2022-09-25T16:29:12.779Z,9.25
2022-09-25T16:31:43.852Z,9.00
2022-09-25T16:34:26.471Z,9.00
2022-09-25T16:36:58.272Z,8.40
2022-09-25T16:39:32.866Z,9.15
2022-09-25T16:42:42.145Z,9.85
2022-09-25T16:45:34.361Z,10.55
2022-09-25T16:48:34.940Z,9.32
2022-09-25T16:51:02.754Z,9.85
2022-09-25T16:53:30.412Z,9.77
2022-09-25T16:55:59.236Z,10.50
2022-09-25T16:58:26.746Z,9.75
2022-09-25T17:00:54.346Z,10.15
2022-09-25T17:03:22.127Z,10.70
2022-09-25T17:05:49.888Z,10.57
2022-09-25T17:08:20.628Z,11.32
2022-09-25T17:10:51.511Z,11.60
2022-09-25T17:13:26.614Z,10.85
2022-09-25T17:15:55.845Z,11.05
2022-09-25T17:18:23.550Z,11.35
2022-09-25T17:20:53.012Z,11.07
2022-09-25T17:23:22.185Z,12.02
2022-09-25T17:26:16.032Z,11.55
2022-09-25T17:28:44.515Z,11.65
2022-09-25T17:31:16.074Z,10.95
2022-09-25T17:33:43.670Z,12.80
2022-09-25T17:36:12.423Z,12.07
2022-09-25T17:38:40.089Z,11.88
2022-09-25T17:41:31.305Z,12.13
2022-09-25T17:43:59.785Z,12.63
2022-09-25T17:46:27.877Z,12.05
2022-09-25T17:48:55.504Z,14.60
2022-09-25T17:51:26.253Z,13.25
2022-09-25T17:53:56.074Z,15.25
2022-09-25T17:56:25.723Z,13.27
2022-09-25T17:58:57.395Z,12.35
2022-09-25T18:01:28.303Z,13.45
2022-09-25T18:04:00.904Z,12.82
2022-09-25T18:06:30.479Z,12.48
2022-09-25T18:08:58.993Z,11.63
2022-09-25T18:11:27.303Z,14.13
2022-09-25T18:13:57.037Z,12.50
2022-09-25T18:16:28.872Z,13.50
2022-09-25T18:19:15.749Z,13.25
2022-09-25T18:22:02.579Z,13.35
2022-09-25T18:24:30.351Z,15.43
2022-09-25T18:26:58.533Z,13.10
2022-09-25T18:29:26.978Z,14.85
2022-09-25T18:31:54.631Z,13.95
2022-09-25T18:34:22.867Z,15.05
2022-09-25T18:36:50.792Z,14.65
2022-09-25T18:39:20.439Z,14.18
2022-09-25T18:41:48.482Z,16.20
2022-09-25T18:44:17.897Z,16.23
2022-09-25T18:46:46.034Z,15.32
2022-09-25T18:49:13.736Z,16.08
2022-09-25T18:51:42.015Z,14.32
2022-09-25T18:54:13.165Z,16.40
2022-09-25T18:56:42.597Z,15.50
2022-09-25T18:59:11.028Z,14.82
2022-09-25T19:01:39.814Z,14.27
2022-09-25T19:04:08.357Z,16.15
2022-09-25T19:06:35.992Z,14.60
2022-09-25T19:09:05.143Z,15.10
2022-09-25T19:11:33.145Z,14.73
2022-09-25T19:14:04.659Z,14.40
2022-09-25T19:16:38.007Z,14.18
2022-09-25T19:21:34.125Z,14.90
2022-09-25T19:24:02.011Z,15.05
2022-09-25T19:26:31.037Z,13.90
2022-09-25T19:29:00.556Z,15.27
2022-09-25T19:31:28.856Z,15.85
2022-09-25T19:33:58.034Z,15.52
2022-09-25T19:36:30.559Z,16.08
2022-09-25T19:38:59.870Z,16.05
2022-09-25T19:41:34.368Z,17.15
2022-09-25T19:44:12.336Z,17.88
2022-09-25T19:46:46.406Z,16.27
2022-09-25T19:49:16.761Z,16.90
2022-09-25T19:51:45.100Z,17.33
2022-09-25T19:54:15.034Z,18.60
2022-09-25T19:56:46.302Z,19.13
2022-09-25T19:59:15.748Z,16.77
2022-09-25T20:01:43.734Z,18.02
2022-09-25T20:04:17.465Z,18.33
2022-09-25T20:06:47.094Z,18.17
2022-09-25T20:09:15.041Z,17.75
2022-09-25T20:11:43.496Z,18.75
2022-09-25T20:14:11.434Z,18.85
2022-09-25T20:16:39.009Z,18.35
2022-09-25T20:19:07.628Z,20.45
2022-09-25T20:21:37.920Z,20.38
2022-09-25T20:24:08.117Z,19.45
2022-09-25T20:26:36.652Z,20.08
2022-09-25T20:29:12.561Z,19.40
2022-09-25T20:31:42.893Z,19.33
2022-09-25T20:34:16.534Z,21.90
2022-09-25T20:39:15.604Z,21.15
2022-09-25T20:41:46.643Z,20.98
2022-09-25T20:44:14.897Z,20.92
2022-09-25T20:46:42.642Z,20.10
2022-09-25T20:49:11.765Z,20.45
2022-09-25T20:51:41.333Z,21.42
2022-09-25T20:54:10.255Z,22.23
2022-09-25T20:56:43.730Z,22.55
2022-09-25T20:59:12.316Z,23.35
2022-09-25T21:01:41.553Z,21.40
2022-09-25T21:04:10.388Z,84.07
2022-09-25T21:06:40.346Z,24.60
2022-09-25T21:09:20.360Z,21.73
2022-09-25T21:11:48.954Z,21.88
2022-09-25T21:14:25.454Z,23.25
2022-09-25T21:16:56.303Z,22.40
2022-09-25T21:19:24.613Z,22.27
2022-09-25T21:21:52.301Z,21.73
2022-09-25T21:24:21.369Z,23.25
2022-09-25T21:26:49.936Z,26.83
2022-09-25T21:29:18.231Z,21.67
2022-09-25T21:31:49.910Z,21.35
2022-09-25T21:34:19.139Z,22.42
2022-09-25T21:36:47.484Z,22.33
2022-09-25T21:39:15.571Z,23.35
2022-09-25T21:41:43.808Z,24.33
2022-09-25T21:44:14.153Z,22.88
2022-09-25T21:46:44.060Z,24.98
2022-09-25T21:49:17.379Z,23.75
2022-09-25T21:51:46.473Z,21.55
2022-09-25T21:54:15.746Z,22.48
2022-09-25T21:56:44.589Z,23.40
2022-09-25T21:59:13.214Z,23.20
2022-09-25T22:01:41.107Z,23.20
2022-09-25T22:04:12.890Z,24.23
2022-09-25T22:06:47.200Z,23.90
2022-09-25T22:09:21.819Z,23.27
2022-09-25T22:11:51.181Z,23.00
2022-09-25T22:14:20.730Z,22.42
2022-09-25T22:16:50.487Z,22.77
2022-09-25T22:19:23.508Z,22.38
2022-09-25T22:21:53.387Z,21.83
2022-09-25T22:24:22.709Z,22.25
2022-09-25T22:26:51.939Z,23.60
2022-09-25T22:29:20.938Z,25.92
2022-09-25T22:31:48.901Z,23.83
2022-09-25T22:34:26.488Z,24.05
2022-09-25T22:36:59.607Z,24.70
2022-09-25T22:41:57.258Z,22.40
2022-09-25T22:44:25.818Z,22.13
2022-09-25T22:46:54.033Z,20.63
2022-09-25T22:49:21.846Z,22.42
2022-09-25T22:51:49.416Z,19.55
2022-09-25T22:54:16.976Z,21.60
2022-09-25T22:56:45.096Z,20.42
2022-09-25T22:59:18.988Z,19.30
2022-09-25T23:01:52.459Z,18.95
2022-09-25T23:04:23.292Z,19.10
2022-09-25T23:06:52.084Z,20.08
2022-09-25T23:09:22.725Z,19.85
2022-09-25T23:11:50.710Z,19.42
2022-09-25T23:14:22.014Z,18.73
2022-09-25T23:16:51.890Z,19.48
2022-09-25T23:19:20.888Z,18.83
2022-09-25T23:21:51.290Z,20.70
2022-09-25T23:24:20.137Z,19.65
2022-09-25T23:26:48.748Z,19.00
2022-09-25T23:29:18.598Z,19.90
2022-09-25T23:31:47.428Z,24.60
2022-09-25T23:34:15.298Z,22.35
2022-09-25T23:36:42.967Z,24.60
2022-09-25T23:39:17.010Z,22.48
2022-09-25T23:41:44.662Z,23.42
2022-09-25T23:44:13.653Z,27.48
2022-09-25T23:46:43.145Z,26.38
2022-09-25T23:49:11.559Z,29.60
2022-09-25T23:51:39.278Z,28.75
2022-09-25T23:54:06.851Z,29.23
2022-09-25T23:56:35.811Z,31.67
2022-09-25T23:59:05.173Z,30.20
